Time;durP1;ratioP1;P1;durP2;ratioP2;P2;SDS_P1;SDS_P2;PMS_P1;PMS_P2;Temp;Humidity;BMP_temperature;BMP_pressure;BME280_temperature;BME280_humidity;BME280_pressure;Samples;Min_cycle;Max_cycle;Signal;HPM_P1;HPM_P2
2021/12/29 00:00:00;;;;;;;59.73;16.87;;;6.60;99.90;;;;;;4826545;29;20050;-93
2021/12/29 00:02:51;;;;;;;62.63;15.63;;;7.70;99.90;;;;;;4869614;23;20051;-94
2021/12/29 00:05:20;;;;;;;46.83;13.97;;;7.00;99.90;;;;;;4860758;23;20145;-94
2021/12/29 00:07:46;;;;;;;47.60;13.57;;;6.80;99.90;;;;;;5114966;23;20047;-94
2021/12/29 00:10:54;;;;;;;50.13;13.70;;;7.40;99.90;;;;;;4873491;23;20061;-94
2021/12/29 00:14:41;;;;;;;49.30;12.80;;;7.10;99.90;;;;;;4870506;23;20084;-93
2021/12/29 00:18:15;;;;;;;46.20;11.97;;;6.20;99.90;;;;;;4847744;29;20054;-94
2021/12/29 00:20:43;;;;;;;52.87;12.17;;;6.00;99.90;;;;;;4846633;29;20531;-93
2021/12/29 00:23:39;;;;;;;44.50;11.30;;;7.80;99.90;;;;;;4846926;29;20243;-94
2021/12/29 00:26:11;;;;;;;42.23;10.23;;;6.10;99.90;;;;;;4846452;29;20136;-93
2021/12/29 00:28:39;;;;;;;45.13;11.37;;;7.30;99.90;;;;;;4846914;29;20383;-93
2021/12/29 00:34:23;;;;;;;40.57;9.67;;;6.80;99.90;;;;;;4827816;29;20061;-93
2021/12/29 00:36:51;;;;;;;34.83;9.00;;;6.50;99.90;;;;;;4828192;29;20050;-93
2021/12/29 00:39:17;;;;;;;41.97;9.60;;;6.40;99.90;;;;;;4828894;29;20054;-94
2021/12/29 00:41:43;;;;;;;36.47;10.03;;;7.10;99.90;;;;;;4827639;29;20061;-93
2021/12/29 00:44:42;;;;;;;47.87;10.27;;;5.90;99.90;;;;;;4828515;29;20487;-93
2021/12/29 00:47:14;;;;;;;34.23;8.90;;;6.00;99.90;;;;;;4801998;29;20461;-93
2021/12/29 00:50:41;;;;;;;29.67;8.30;;;5.80;99.90;;;;;;4844242;29;20178;-95
2021/12/29 00:53:14;;;;;;;32.73;8.80;;;6.10;99.90;;;;;;4809834;29;20046;-94
2021/12/29 00:55:41;;;;;;;30.05;8.50;;;6.20;99.90;;;;;;4809199;29;20878;-93
2021/12/29 00:58:15;;;;;;;27.27;8.40;;;7.00;99.90;;;;;;5074231;23;20463;-94
2021/12/29 01:01:08;;;;;;;25.30;7.93;;;6.90;99.90;;;;;;4836448;29;20190;-95
2021/12/29 01:03:38;;;;;;;26.93;7.93;;;6.20;99.90;;;;;;5071448;23;20081;-95
2021/12/29 01:06:37;;;;;;;30.10;8.63;;;6.90;99.90;;;;;;4862099;23;20105;-94
2021/12/29 01:09:35;;;;;;;28.03;7.67;;;5.90;99.90;;;;;;5083961;23;20057;-95
2021/12/29 01:19:26;;;;;;;;;;;;;;;;;;;;;
2021/12/29 01:25:53;;;;;;;28.80;8.23;;;6.20;99.90;;;;;;4846592;29;20098;-95
2021/12/29 01:28:21;;;;;;;26.97;8.20;;;6.30;99.90;;;;;;4846796;29;20052;-95
2021/12/29 01:30:55;;;;;;;34.70;8.87;;;7.30;99.90;;;;;;4842039;29;20058;-95
2021/12/29 01:33:52;;;;;;;43.13;10.68;;;6.00;99.90;;;;;;4827527;29;20243;-94
2021/12/29 01:39:55;;;;;;;41.57;9.77;;;6.70;99.90;;;;;;4772128;30;20051;-94
2021/12/29 01:42:24;;;;;;;33.25;9.82;;;6.70;99.90;;;;;;4771757;30;20066;-94
2021/12/29 01:44:55;;;;;;;38.00;10.47;;;7.50;99.90;;;;;;4772056;30;20067;-94
2021/12/29 01:54:04;;;;;;;51.93;11.50;;;6.30;99.90;;;;;;4790058;29;20047;-94
2021/12/29 01:56:48;;;;;;;51.97;11.27;;;7.70;99.90;;;;;;4908121;23;20047;-94
2021/12/29 02:09:47;;;;;;;67.93;13.27;;;7.30;99.90;;;;;;4844033;29;20059;-94
2021/12/29 02:12:45;;;;;;;80.83;13.67;;;6.70;99.90;;;;;;4866963;23;20065;-94
2021/12/29 02:15:47;;;;;;;87.80;14.47;;;6.40;99.90;;;;;;4771616;30;20557;-95
2021/12/29 02:19:10;;;;;;;95.47;14.27;;;5.60;99.90;;;;;;4751200;30;20102;-94
2021/12/29 02:21:43;;;;;;;119.17;16.30;;;7.40;99.90;;;;;;4833005;29;20092;-95
2021/12/29 02:24:42;;;;;;;94.53;14.60;;;6.00;99.90;;;;;;4879557;29;20553;-93
2021/12/29 02:27:37;;;;;;;103.40;16.90;;;7.10;99.90;;;;;;4863614;29;20069;-94
2021/12/29 02:36:44;;;;;;;126.07;17.83;;;6.60;99.90;;;;;;4884009;23;20098;-93
2021/12/29 03:18:41;;;;;;;71.97;14.13;;;6.70;99.90;;;;;;4839353;29;20085;-94
2021/12/29 03:27:28;;;;;;;;;;;;;;;;;;;;;
2021/12/29 03:57:10;;;;;;;64.57;16.40;;;8.10;99.90;;;;;;4863780;29;20528;-92
2021/12/29 04:00:22;;;;;;;;;;;;;;;;;;;;;
2021/12/29 04:04:19;;;;;;;;;;;;;;;;;;;;;
2021/12/29 04:07:10;;;;;;;62.30;18.63;;;7.10;99.90;;;;;;4750941;29;20058;-95
2021/12/29 04:10:11;;;;;;;61.80;17.70;;;7.10;99.90;;;;;;4792237;29;20050;-95
2021/12/29 04:32:53;;;;;;;;;;;;;;;;;;;;;
2021/12/29 04:40:16;;;;;;;56.07;19.33;;;6.50;99.90;;;;;;4789067;29;20130;-95
2021/12/29 04:43:16;;;;;;;74.23;25.00;;;6.90;99.90;;;;;;4735467;30;20097;-96
2021/12/29 04:46:15;;;;;;;51.93;17.30;;;8.10;99.90;;;;;;4721081;30;20580;-95
2021/12/29 04:52:21;;;;;;;;;;;;;;;;;;;;;
2021/12/29 04:55:45;;;;;;;45.87;16.47;;;7.10;99.90;;;;;;4742647;23;20049;-93
2021/12/29 04:58:13;;;;;;;49.00;16.63;;;7.50;99.90;;;;;;4846873;29;20046;-94
2021/12/29 05:00:42;;;;;;;60.83;21.80;;;6.70;99.90;;;;;;4846709;29;20067;-94
2021/12/29 05:08:45;;;;;;;61.13;24.63;;;8.40;99.90;;;;;;4843146;29;20058;-95
2021/12/29 05:14:18;;;;;;;61.93;19.73;;;7.20;99.90;;;;;;4844329;29;20089;-93
2021/12/29 05:16:49;;;;;;;54.70;20.63;;;7.10;99.90;;;;;;4828337;29;20046;-95
2021/12/29 05:19:19;;;;;;;54.73;20.40;;;7.20;99.90;;;;;;4782342;29;20058;-94
2021/12/29 05:22:21;;;;;;;58.07;22.27;;;7.30;99.90;;;;;;4844218;29;20052;-94
2021/12/29 05:25:17;;;;;;;47.00;16.50;;;7.30;99.90;;;;;;4805810;29;20063;-94
2021/12/29 05:28:30;;;;;;;;;;;;;;;;;;;;;
2021/12/29 05:34:48;;;;;;;55.00;20.47;;;7.50;99.90;;;;;;4788532;30;20066;-93
2021/12/29 05:44:07;;;;;;;;;;;;;;;;;;;;;
2021/12/29 05:51:01;;;;;;;50.50;18.20;;;7.20;99.90;;;;;;4981561;23;20049;-93
2021/12/29 05:53:43;;;;;;;;;;;;;;;;;;;;;
2021/12/29 05:56:41;;;;;;;;;;;;;;;;;;;;;
2021/12/29 05:59:31;;;;;;;47.07;18.43;;;7.90;99.90;;;;;;4772644;30;20143;-94
2021/12/29 06:02:04;;;;;;;51.77;17.50;;;7.10;99.90;;;;;;4772433;30;20520;-94
2021/12/29 06:05:08;;;;;;;51.43;19.87;;;7.30;99.90;;;;;;4824198;23;20113;-94
2021/12/29 06:07:42;;;;;;;55.30;19.60;;;7.30;99.90;;;;;;4845949;29;20060;-93
2021/12/29 06:10:13;;;;;;;51.50;18.47;;;7.90;99.90;;;;;;4846045;29;20477;-94
2021/12/29 06:18:29;;;;;;;61.80;23.07;;;7.20;99.90;;;;;;4841828;29;20057;-94
2021/12/29 06:24:57;;;;;;;36.83;16.93;;;7.50;99.90;;;;;;4844290;29;20058;-94
2021/12/29 06:49:14;;;;;;;49.00;18.93;;;7.10;99.90;;;;;;4771722;30;20556;-94
2021/12/29 06:51:48;;;;;;;50.03;18.30;;;8.10;99.90;;;;;;4751288;30;20151;-94
2021/12/29 06:54:17;;;;;;;45.53;17.20;;;7.30;99.90;;;;;;4736435;30;20056;-95
2021/12/29 06:56:46;;;;;;;50.00;18.37;;;7.50;99.90;;;;;;4736727;30;20066;-95
2021/12/29 06:59:14;;;;;;;43.57;16.87;;;7.80;99.90;;;;;;4736843;30;20090;-93
2021/12/29 07:08:01;;;;;;;53.20;17.33;;;7.30;99.90;;;;;;4876132;23;20081;-93
2021/12/29 07:12:59;;;;;;;48.73;17.00;;;7.30;99.90;;;;;;4899528;23;20057;-94
2021/12/29 07:21:33;;;;;;;59.63;23.27;;;7.30;99.90;;;;;;5038518;23;1153796;-94
2021/12/29 07:24:00;;;;;;;40.13;16.40;;;7.30;99.90;;;;;;4860897;29;20386;-93
2021/12/29 07:26:27;;;;;;;55.90;19.27;;;7.10;99.90;;;;;;4863608;29;20140;-94
2021/12/29 07:28:56;;;;;;;49.20;18.00;;;8.40;99.90;;;;;;4863296;29;20064;-96
2021/12/29 07:31:50;;;;;;;42.27;17.27;;;7.00;99.90;;;;;;4864065;29;20044;-96
2021/12/29 07:34:22;;;;;;;41.73;15.90;;;8.30;99.90;;;;;;4882641;29;20076;-90
2021/12/29 07:36:49;;;;;;;42.67;15.43;;;7.20;99.90;;;;;;4883492;29;20096;-92
2021/12/29 07:39:27;;;;;;;42.40;15.53;;;7.20;99.90;;;;;;4862157;29;20132;-93
2021/12/29 07:42:43;;;;;;;;;;;;;;;;;;;;;
2021/12/29 07:46:03;;;;;;;40.87;15.83;;;7.30;99.90;;;;;;4806434;29;20057;-94
2021/12/29 07:56:09;;;;;;;59.13;22.20;;;7.40;99.90;;;;;;4737608;30;20056;-90
2021/12/29 07:58:35;;;;;;;77.90;28.90;;;7.20;99.90;;;;;;4753053;30;20074;-91
2021/12/29 08:01:10;;;;;;;68.97;19.63;;;7.30;99.90;;;;;;4804642;29;20066;-95
2021/12/29 08:03:36;;;;;;;84.87;21.70;;;8.00;99.90;;;;;;4799485;29;20092;-90
2021/12/29 08:06:02;;;;;;;107.90;49.67;;;7.90;99.90;;;;;;4802646;29;20185;-90
2021/12/29 08:08:34;;;;;;;138.50;66.80;;;8.80;99.90;;;;;;4806172;29;20573;-91
2021/12/29 08:11:00;;;;;;;92.40;39.77;;;7.10;99.90;;;;;;4804518;29;20050;-84
2021/12/29 08:13:34;;;;;;;92.00;23.03;;;7.20;99.90;;;;;;4802993;29;20116;-86
2021/12/29 08:16:11;;;;;;;83.17;22.37;;;7.20;99.90;;;;;;4803606;29;20928;-95
2021/12/29 08:18:40;;;;;;;77.23;22.50;;;8.10;99.90;;;;;;4809878;29;20134;-90
2021/12/29 08:21:06;;;;;;;86.23;23.43;;;7.90;99.90;;;;;;4842992;29;20439;-90
2021/12/29 08:23:35;;;;;;;60.63;18.13;;;8.70;99.90;;;;;;4845396;29;20065;-90
2021/12/29 08:26:01;;;;;;;60.47;21.53;;;8.50;99.90;;;;;;4845807;29;20050;-89
2021/12/29 08:28:33;;;;;;;80.37;21.77;;;8.40;99.90;;;;;;4846767;29;20519;-91
2021/12/29 08:31:08;;;;;;;83.83;23.90;;;7.20;99.90;;;;;;4846708;29;20097;-89
2021/12/29 08:33:39;;;;;;;85.90;26.30;;;7.30;99.90;;;;;;4862374;29;20535;-91
2021/12/29 08:36:11;;;;;;;93.43;23.47;;;7.90;99.90;;;;;;4845953;29;20049;-89
2021/12/29 08:38:40;;;;;;;81.13;26.23;;;7.30;99.90;;;;;;4846600;29;20049;-89
2021/12/29 08:41:12;;;;;;;98.30;25.27;;;7.40;99.90;;;;;;4845826;29;20148;-91
2021/12/29 08:43:41;;;;;;;94.63;26.00;;;7.30;99.90;;;;;;4846610;29;20057;-85
2021/12/29 08:46:07;;;;;;;79.57;22.10;;;7.30;99.90;;;;;;4845920;29;20113;-87
2021/12/29 08:48:42;;;;;;;76.43;19.83;;;7.80;99.90;;;;;;4869482;29;20057;-90
2021/12/29 08:53:52;;;;;;;71.63;20.30;;;7.40;99.90;;;;;;4876236;23;20068;-90
2021/12/29 08:56:22;;;;;;;72.27;20.87;;;7.30;99.90;;;;;;4866492;23;20054;-92
2021/12/29 09:02:45;;;;;;;59.03;19.20;;;7.10;99.90;;;;;;4848458;29;20113;-88
2021/12/29 09:05:12;;;;;;;59.83;18.87;;;7.40;99.90;;;;;;4845425;29;20088;-88
2021/12/29 09:07:38;;;;;;;72.67;19.03;;;7.40;99.90;;;;;;4847255;29;20173;-88
2021/12/29 09:10:08;;;;;;;57.63;18.00;;;7.50;99.90;;;;;;4868208;29;20037;-88
2021/12/29 09:12:34;;;;;;;70.40;19.20;;;7.50;99.90;;;;;;4847009;29;20076;-89
2021/12/29 09:14:59;;;;;;;66.93;18.47;;;8.20;99.90;;;;;;4845320;29;20169;-89
2021/12/29 09:17:25;;;;;;;64.43;18.63;;;7.50;99.90;;;;;;4846603;29;20050;-88
2021/12/29 09:19:51;;;;;;;59.03;17.40;;;7.50;99.90;;;;;;4861895;29;20451;-88
2021/12/29 09:22:17;;;;;;;55.57;17.03;;;7.50;99.90;;;;;;4845215;29;20041;-88
2021/12/29 09:24:45;;;;;;;52.37;16.17;;;7.50;99.90;;;;;;4848427;29;20065;-88
2021/12/29 09:27:12;;;;;;;62.50;18.87;;;7.60;99.90;;;;;;4853337;29;20088;-89
2021/12/29 09:29:38;;;;;;;64.10;19.23;;;7.50;99.90;;;;;;4845466;29;20136;-88
2021/12/29 09:32:05;;;;;;;62.37;18.27;;;8.10;99.90;;;;;;4845850;29;20070;-89
2021/12/29 09:34:32;;;;;;;60.23;17.77;;;7.60;99.90;;;;;;4845810;29;20538;-89
2021/12/29 09:37:01;;;;;;;61.87;16.87;;;7.60;99.90;;;;;;4844563;29;20061;-89
2021/12/29 09:39:27;;;;;;;60.70;16.87;;;7.60;99.90;;;;;;4860968;29;20053;-88
2021/12/29 09:41:53;;;;;;;55.97;16.53;;;7.60;99.90;;;;;;4845135;29;20057;-89
2021/12/29 09:44:19;;;;;;;73.43;18.97;;;7.60;99.90;;;;;;4844660;29;20050;-88
2021/12/29 09:46:48;;;;;;;57.37;15.50;;;7.60;99.90;;;;;;4845085;29;20060;-88
2021/12/29 09:49:14;;;;;;;61.70;16.87;;;7.50;99.90;;;;;;4845151;29;20053;-89
2021/12/29 09:51:40;;;;;;;50.97;14.00;;;7.70;99.90;;;;;;4844956;29;20108;-89
2021/12/29 09:54:09;;;;;;;58.00;15.13;;;8.70;99.90;;;;;;4845405;29;20049;-88
2021/12/29 09:56:40;;;;;;;61.47;16.00;;;7.70;99.90;;;;;;4844839;29;20045;-89
2021/12/29 09:59:10;;;;;;;67.07;18.90;;;7.60;99.90;;;;;;4844407;29;20152;-89
2021/12/29 10:01:41;;;;;;;61.87;16.73;;;7.60;99.90;;;;;;4845313;29;20046;-89
2021/12/29 10:04:14;;;;;;;56.93;17.57;;;7.80;99.90;;;;;;4844025;29;20116;-88
2021/12/29 10:06:49;;;;;;;50.40;12.97;;;8.60;99.90;;;;;;4845056;29;20054;-89
2021/12/29 10:09:19;;;;;;;53.37;13.83;;;7.60;99.90;;;;;;4844841;29;20050;-89
2021/12/29 10:11:48;;;;;;;47.33;14.83;;;9.10;99.90;;;;;;4843732;29;20073;-88
2021/12/29 10:14:17;;;;;;;44.90;14.80;;;7.70;99.90;;;;;;4844741;29;20133;-89
2021/12/29 10:16:49;;;;;;;43.93;14.40;;;7.90;99.90;;;;;;4844658;29;20041;-88
2021/12/29 10:19:15;;;;;;;31.50;12.77;;;7.90;99.90;;;;;;4843735;29;20136;-88
2021/12/29 10:21:43;;;;;;;37.30;12.27;;;7.90;99.90;;;;;;4844611;29;20080;-88
2021/12/29 10:24:09;;;;;;;33.40;11.67;;;7.90;99.90;;;;;;4844460;29;20054;-88
2021/12/29 10:26:43;;;;;;;38.83;11.87;;;7.90;99.90;;;;;;4844146;29;20042;-89
2021/12/29 10:29:12;;;;;;;35.88;12.30;;;7.90;99.90;;;;;;4844950;29;20519;-89
2021/12/29 10:31:44;;;;;;;29.67;11.03;;;7.90;99.90;;;;;;4844618;29;20051;-89
2021/12/29 10:34:18;;;;;;;29.53;10.87;;;8.00;99.90;;;;;;4844411;29;20046;-90
2021/12/29 10:36:50;;;;;;;34.47;11.60;;;8.20;99.90;;;;;;4844331;29;20057;-88
2021/12/29 10:39:18;;;;;;;32.53;11.03;;;8.00;99.90;;;;;;4844399;29;20041;-90
2021/12/29 10:41:51;;;;;;;30.43;10.53;;;8.00;99.90;;;;;;4854566;29;20026;-88
2021/12/29 10:44:35;;;;;;;33.92;10.95;;;7.90;99.90;;;;;;4857329;29;20144;-93
2021/12/29 10:50:35;;;;;;;33.70;11.37;;;8.10;99.90;;;;;;4826329;29;20058;-89
2021/12/29 10:54:05;;;;;;;31.37;11.17;;;7.70;99.90;;;;;;4824820;29;20414;-92
2021/12/29 10:56:45;;;;;;;30.57;10.27;;;7.90;99.90;;;;;;4697030;30;20147;-89
2021/12/29 11:05:58;;;;;;;33.07;11.90;;;8.00;99.90;;;;;;4842223;29;20050;-86
2021/12/29 11:08:45;;;;;;;29.30;11.40;;;7.90;99.90;;;;;;4821666;29;20065;-87
2021/12/29 11:11:11;;;;;;;30.03;11.13;;;8.00;99.90;;;;;;4823029;29;20053;-86
2021/12/29 11:13:36;;;;;;;30.70;11.47;;;8.00;99.90;;;;;;4824995;29;20061;-87
2021/12/29 11:16:09;;;;;;;36.50;20.07;;;7.70;99.90;;;;;;4823826;29;20053;-87
2021/12/29 11:18:47;;;;;;;35.00;14.23;;;7.80;99.90;;;;;;4843236;29;20064;-87
2021/12/29 11:21:22;;;;;;;32.17;12.67;;;8.10;99.90;;;;;;4844456;29;20045;-86
2021/12/29 11:23:48;;;;;;;31.40;12.50;;;7.90;99.90;;;;;;4843235;29;20092;-87
2021/12/29 11:26:14;;;;;;;33.93;13.00;;;8.00;99.90;;;;;;4843933;29;20081;-87
2021/12/29 11:28:40;;;;;;;33.57;15.37;;;8.50;99.90;;;;;;4843493;29;20061;-86
2021/12/29 11:31:12;;;;;;;44.10;24.87;;;8.20;99.90;;;;;;4843561;29;20061;-87
2021/12/29 11:33:43;;;;;;;58.83;39.87;;;8.00;99.90;;;;;;4843989;29;20054;-86
2021/12/29 11:36:21;;;;;;;33.03;13.13;;;8.30;99.90;;;;;;4859383;29;20521;-88
2021/12/29 11:38:50;;;;;;;38.33;22.87;;;8.40;99.90;;;;;;4843397;29;20557;-88
2021/12/29 11:41:51;;;;;;;35.90;15.83;;;8.20;99.90;;;;;;4850065;29;20077;-89
2021/12/29 11:44:19;;;;;;;28.73;15.43;;;8.40;99.90;;;;;;4805272;29;20118;-89
2021/12/29 11:46:48;;;;;;;41.47;22.47;;;8.10;99.90;;;;;;4806242;29;20455;-89
2021/12/29 11:49:18;;;;;;;42.33;18.97;;;8.20;99.90;;;;;;4805945;29;20101;-89
2021/12/29 11:55:30;;;;;;;66.03;31.13;;;8.40;99.90;;;;;;4825543;29;20140;-89
2021/12/29 11:58:26;;;;;;;33.43;14.07;;;8.20;99.90;;;;;;4845488;29;20461;-89
2021/12/29 12:01:23;;;;;;;30.37;12.10;;;8.50;99.90;;;;;;4845616;29;20064;-87
2021/12/29 12:03:58;;;;;;;37.10;12.60;;;8.30;99.90;;;;;;4863670;29;20164;-87
2021/12/29 12:06:30;;;;;;;44.63;21.27;;;8.40;99.90;;;;;;4847166;29;20053;-85
2021/12/29 12:09:20;;;;;;;46.77;22.73;;;8.30;99.90;;;;;;4846543;29;20060;-85
2021/12/29 12:12:02;;;;;;;33.97;13.83;;;8.40;99.90;;;;;;4845527;29;20057;-85
2021/12/29 12:14:43;;;;;;;31.07;12.93;;;8.30;99.90;;;;;;4871571;29;20046;-86
2021/12/29 12:17:17;;;;;;;35.10;12.97;;;8.20;99.90;;;;;;4842793;29;20049;-86
2021/12/29 12:19:44;;;;;;;34.93;14.37;;;8.00;99.90;;;;;;4858750;29;20086;-86
2021/12/29 12:22:16;;;;;;;28.23;12.93;;;8.40;99.90;;;;;;4846181;29;20056;-86
2021/12/29 12:25:05;;;;;;;38.93;18.10;;;8.40;99.90;;;;;;4861447;29;20524;-86
2021/12/29 12:27:44;;;;;;;30.53;13.10;;;8.40;99.90;;;;;;4840093;29;20430;-87
2021/12/29 12:30:19;;;;;;;33.40;15.83;;;8.40;99.90;;;;;;4862843;29;20050;-87
2021/12/29 12:32:57;;;;;;;33.30;15.50;;;8.40;99.90;;;;;;4845279;29;20053;-87
2021/12/29 12:35:38;;;;;;;31.13;13.10;;;8.40;99.90;;;;;;4846719;29;20046;-87
2021/12/29 12:38:15;;;;;;;36.30;13.10;;;8.40;99.90;;;;;;4845966;29;20056;-87
2021/12/29 12:40:42;;;;;;;35.43;13.47;;;8.90;99.90;;;;;;4845161;29;20054;-87
2021/12/29 12:43:15;;;;;;;30.97;12.87;;;8.40;99.90;;;;;;4846244;29;20050;-87
2021/12/29 12:45:44;;;;;;;31.88;13.43;;;8.40;99.90;;;;;;4845684;29;20049;-87
2021/12/29 12:48:18;;;;;;;36.43;13.77;;;8.40;99.90;;;;;;4845993;29;20045;-87
2021/12/29 12:50:44;;;;;;;38.17;14.63;;;8.40;99.90;;;;;;4845938;29;20168;-86
2021/12/29 12:53:11;;;;;;;35.03;14.00;;;8.40;99.90;;;;;;4845465;29;20182;-87
2021/12/29 12:55:51;;;;;;;33.73;13.33;;;8.40;99.90;;;;;;4846035;29;20037;-87
2021/12/29 12:58:19;;;;;;;45.30;14.87;;;9.00;99.90;;;;;;4845978;29;20049;-88
2021/12/29 13:00:48;;;;;;;36.00;13.77;;;8.40;99.90;;;;;;4844919;29;20065;-89
2021/12/29 13:03:16;;;;;;;40.30;15.07;;;8.30;99.90;;;;;;4846105;29;20501;-90
2021/12/29 13:05:48;;;;;;;34.70;15.03;;;8.30;99.90;;;;;;4845154;29;20137;-89
2021/12/29 13:08:25;;;;;;;38.83;16.03;;;8.40;99.90;;;;;;4844419;29;20112;-90
2021/12/29 13:11:16;;;;;;;37.33;15.77;;;8.60;99.90;;;;;;4848499;29;20129;-89
2021/12/29 13:13:46;;;;;;;37.67;15.43;;;8.20;99.90;;;;;;4847028;29;20049;-88
2021/12/29 13:16:15;;;;;;;44.23;16.67;;;8.20;99.90;;;;;;4845266;29;20060;-88
2021/12/29 13:18:47;;;;;;;37.80;15.63;;;8.50;99.90;;;;;;4845460;29;20053;-90
2021/12/29 13:21:39;;;;;;;39.53;16.17;;;8.10;99.90;;;;;;4845302;29;20050;-90
2021/12/29 13:24:13;;;;;;;36.50;16.17;;;8.20;99.90;;;;;;4845600;29;20049;-90
2021/12/29 13:26:46;;;;;;;38.88;17.08;;;7.50;99.90;;;;;;4845501;29;20405;-91
2021/12/29 13:29:17;;;;;;;37.20;16.67;;;8.20;99.90;;;;;;4844939;29;20050;-90
2021/12/29 13:31:43;;;;;;;35.77;16.63;;;9.30;99.90;;;;;;4845760;29;20093;-89
2021/12/29 13:34:08;;;;;;;36.20;17.23;;;9.70;99.90;;;;;;4845265;29;20081;-89
2021/12/29 13:36:34;;;;;;;39.20;16.30;;;8.20;99.90;;;;;;4861114;29;20050;-88
2021/12/29 13:39:03;;;;;;;35.60;16.57;;;8.00;99.90;;;;;;4845108;29;20498;-89
2021/12/29 13:41:36;;;;;;;33.07;16.80;;;8.30;99.90;;;;;;4845373;29;20182;-89
2021/12/29 13:44:06;;;;;;;35.55;16.92;;;7.90;99.90;;;;;;4844359;29;20057;-88
2021/12/29 13:46:34;;;;;;;37.47;16.53;;;7.70;99.90;;;;;;4851274;29;20045;-88
2021/12/29 13:49:04;;;;;;;37.43;17.50;;;8.00;99.90;;;;;;4852466;29;20060;-88
2021/12/29 13:51:57;;;;;;;39.30;18.80;;;8.70;99.90;;;;;;4861758;29;20064;-89
2021/12/29 13:54:27;;;;;;;43.87;20.83;;;8.10;99.90;;;;;;4844874;29;20116;-89
2021/12/29 13:56:55;;;;;;;43.53;21.63;;;7.90;99.90;;;;;;4860801;29;20062;-89
2021/12/29 13:59:25;;;;;;;44.13;21.77;;;9.60;99.90;;;;;;4861579;29;20061;-89
2021/12/29 14:02:08;;;;;;;37.40;21.83;;;7.90;99.90;;;;;;4840181;29;20045;-89
2021/12/29 14:04:44;;;;;;;44.83;22.07;;;8.00;99.90;;;;;;4825847;29;20459;-89
2021/12/29 14:07:11;;;;;;;42.07;21.83;;;7.90;99.90;;;;;;4826859;29;20046;-89
2021/12/29 14:09:39;;;;;;;40.23;24.57;;;7.80;99.90;;;;;;4826381;29;20570;-90
2021/12/29 14:12:15;;;;;;;40.97;19.20;;;7.80;99.90;;;;;;4825753;29;20070;-90
2021/12/29 14:14:55;;;;;;;40.60;20.47;;;7.90;99.90;;;;;;4826989;29;20505;-90
2021/12/29 14:17:23;;;;;;;39.60;19.00;;;8.00;99.90;;;;;;4834796;29;20410;-89
2021/12/29 14:19:50;;;;;;;42.67;17.47;;;7.60;99.90;;;;;;4859813;29;20060;-89
2021/12/29 14:22:30;;;;;;;35.50;16.83;;;8.50;99.90;;;;;;4841805;29;20178;-89
2021/12/29 14:24:56;;;;;;;40.40;16.47;;;7.80;99.90;;;;;;4840379;29;20128;-89
2021/12/29 14:27:23;;;;;;;41.33;17.53;;;7.60;99.90;;;;;;4844040;29;20166;-90
2021/12/29 14:29:49;;;;;;;46.50;17.03;;;8.60;99.90;;;;;;4844274;29;20049;-90
2021/12/29 14:32:33;;;;;;;34.03;16.90;;;7.60;99.90;;;;;;4844106;29;20041;-90
2021/12/29 14:35:04;;;;;;;36.30;16.80;;;7.70;99.90;;;;;;4844340;29;20046;-89
2021/12/29 14:37:30;;;;;;;35.83;15.77;;;7.70;99.90;;;;;;4844350;29;20060;-89
2021/12/29 14:40:03;;;;;;;39.73;16.83;;;8.50;99.90;;;;;;4843508;29;20049;-89
2021/12/29 14:42:41;;;;;;;35.53;17.35;;;7.50;99.90;;;;;;4844868;29;20515;-92
2021/12/29 14:45:08;;;;;;;34.20;15.93;;;7.60;99.90;;;;;;4844521;29;20055;-91
2021/12/29 14:50:15;;;;;;;39.17;17.53;;;7.60;99.90;;;;;;4900739;23;20053;-89
2021/12/29 14:52:51;;;;;;;37.17;17.57;;;8.60;99.90;;;;;;4825004;29;20149;-89
2021/12/29 14:55:24;;;;;;;38.37;17.97;;;7.60;99.90;;;;;;4825731;29;20057;-87
2021/12/29 14:57:53;;;;;;;38.85;18.58;;;7.50;99.90;;;;;;4825657;29;20142;-93
2021/12/29 15:00:25;;;;;;;35.93;18.30;;;7.60;99.90;;;;;;4825090;29;20053;-89
2021/12/29 15:02:51;;;;;;;40.47;21.53;;;8.40;99.90;;;;;;4826748;29;20065;-89
2021/12/29 15:05:23;;;;;;;37.30;22.10;;;8.40;99.90;;;;;;4830712;29;20046;-88
2021/12/29 15:07:51;;;;;;;36.80;20.67;;;7.50;99.90;;;;;;4824058;29;20054;-90
2021/12/29 15:10:54;;;;;;;44.07;20.40;;;7.40;99.90;;;;;;4824737;29;20102;-90
2021/12/29 15:13:37;;;;;;;45.10;20.43;;;7.50;99.90;;;;;;4817797;29;20145;-89
2021/12/29 15:16:08;;;;;;;45.33;21.75;;;7.50;99.90;;;;;;4825928;29;20506;-89
2021/12/29 15:18:40;;;;;;;44.63;22.30;;;7.40;99.90;;;;;;4828633;29;20046;-89
2021/12/29 15:21:11;;;;;;;43.30;22.20;;;7.50;99.90;;;;;;4838240;29;20053;-89
2021/12/29 15:23:39;;;;;;;46.77;22.47;;;7.50;99.90;;;;;;4842063;29;20399;-89
2021/12/29 15:26:10;;;;;;;46.53;23.03;;;8.10;99.90;;;;;;4824998;29;20145;-89
2021/12/29 15:28:36;;;;;;;43.23;22.80;;;7.50;99.90;;;;;;4841396;29;20053;-89
2021/12/29 15:31:11;;;;;;;48.27;24.57;;;7.40;99.90;;;;;;4824945;29;20053;-89
2021/12/29 15:33:37;;;;;;;51.20;23.50;;;8.00;99.90;;;;;;4828879;29;20054;-89
2021/12/29 15:36:11;;;;;;;51.83;23.77;;;8.20;99.90;;;;;;4828249;29;20080;-89
2021/12/29 15:38:37;;;;;;;46.60;22.63;;;7.40;99.90;;;;;;4845658;29;20559;-89
2021/12/29 15:41:14;;;;;;;47.63;23.77;;;7.90;99.90;;;;;;4845318;29;20114;-90
2021/12/29 15:47:50;;;;;;;54.40;23.80;;;7.50;99.90;;;;;;4824016;29;20138;-92
2021/12/29 15:50:20;;;;;;;48.57;23.47;;;7.50;99.90;;;;;;4807764;29;20051;-87
2021/12/29 15:52:49;;;;;;;53.17;23.73;;;7.30;99.90;;;;;;4809990;29;20475;-89
2021/12/29 15:55:22;;;;;;;47.50;22.77;;;7.20;99.90;;;;;;4825358;29;20539;-89
2021/12/29 15:57:52;;;;;;;50.23;24.57;;;7.60;99.90;;;;;;4809790;29;20392;-90
2021/12/29 16:00:24;;;;;;;53.27;24.50;;;8.10;99.90;;;;;;4805373;29;20055;-94
2021/12/29 16:03:14;;;;;;;60.73;25.70;;;7.20;99.90;;;;;;4863888;23;20059;-91
2021/12/29 16:05:51;;;;;;;47.80;25.13;;;8.40;99.90;;;;;;4865007;29;20065;-89
2021/12/29 16:09:20;;;;;;;49.60;25.13;;;7.50;99.90;;;;;;4864279;29;20070;-92
2021/12/29 16:11:58;;;;;;;52.70;24.53;;;7.70;99.90;;;;;;4791374;29;20051;-90
2021/12/29 16:17:10;;;;;;;61.63;26.53;;;7.40;99.90;;;;;;4850363;23;20052;-89
2021/12/29 16:19:39;;;;;;;53.97;25.63;;;7.20;99.90;;;;;;4856451;29;20109;-91
2021/12/29 16:22:05;;;;;;;52.57;25.73;;;7.20;99.90;;;;;;4812343;29;20505;-88
2021/12/29 16:24:34;;;;;;;57.40;25.77;;;7.90;99.90;;;;;;4881175;29;20052;-89
2021/12/29 16:27:06;;;;;;;56.60;26.33;;;7.70;99.90;;;;;;4864640;29;20080;-89
2021/12/29 16:29:32;;;;;;;55.20;26.23;;;7.20;99.90;;;;;;4864950;29;20078;-89
2021/12/29 16:32:04;;;;;;;61.23;28.10;;;7.60;99.90;;;;;;4863934;29;20405;-88
2021/12/29 16:34:32;;;;;;;58.47;26.33;;;7.40;99.90;;;;;;4864977;29;20439;-88
2021/12/29 16:37:07;;;;;;;65.77;27.73;;;7.60;99.90;;;;;;4881245;29;20512;-88
2021/12/29 16:39:35;;;;;;;58.23;28.03;;;7.20;99.90;;;;;;4864148;29;20049;-88
2021/12/29 16:42:09;;;;;;;58.73;27.23;;;7.60;99.90;;;;;;4864610;29;20140;-90
2021/12/29 16:44:35;;;;;;;73.82;29.63;;;7.40;99.90;;;;;;4863578;29;20056;-92
2021/12/29 16:47:08;;;;;;;69.10;28.90;;;7.00;99.90;;;;;;4863450;29;20045;-90
2021/12/29 16:49:34;;;;;;;69.67;28.60;;;7.50;99.90;;;;;;4864685;29;20071;-90
2021/12/29 16:52:20;;;;;;;66.77;27.53;;;7.40;99.90;;;;;;4876330;29;20041;-89
2021/12/29 16:54:56;;;;;;;57.80;26.83;;;6.70;99.90;;;;;;4874389;29;20092;-90
2021/12/29 16:57:22;;;;;;;60.83;27.83;;;7.70;99.90;;;;;;4881561;29;20056;-90
2021/12/29 16:59:48;;;;;;;62.57;27.57;;;7.30;99.90;;;;;;4881645;29;20040;-90
2021/12/29 17:02:14;;;;;;;68.47;28.40;;;7.30;99.90;;;;;;4882994;29;20127;-89
2021/12/29 17:04:43;;;;;;;70.00;28.83;;;7.40;99.90;;;;;;4872317;29;20569;-89
2021/12/29 17:07:18;;;;;;;62.23;27.70;;;7.30;99.90;;;;;;4862485;29;20041;-89
2021/12/29 17:09:49;;;;;;;78.47;29.90;;;7.20;99.90;;;;;;4862908;29;20076;-90
2021/12/29 17:12:18;;;;;;;63.67;27.87;;;7.50;99.90;;;;;;4863338;29;20524;-90
2021/12/29 17:14:45;;;;;;;69.07;28.23;;;7.30;99.90;;;;;;4862661;29;20049;-90
2021/12/29 17:17:14;;;;;;;85.50;30.47;;;7.30;99.90;;;;;;4862448;29;20391;-90
2021/12/29 17:19:41;;;;;;;70.40;29.13;;;8.00;99.90;;;;;;4861519;29;20084;-90
2021/12/29 17:22:13;;;;;;;67.20;29.10;;;7.20;99.90;;;;;;4844533;29;20057;-90
2021/12/29 17:24:39;;;;;;;76.00;30.20;;;7.40;99.90;;;;;;4841721;29;20049;-90
2021/12/29 17:27:10;;;;;;;64.23;27.87;;;8.30;99.90;;;;;;4843858;29;20060;-89
2021/12/29 17:29:35;;;;;;;65.13;29.13;;;7.90;99.90;;;;;;4844842;29;20105;-90
2021/12/29 17:32:13;;;;;;;83.50;30.47;;;8.20;99.90;;;;;;4844402;29;20049;-90
2021/12/29 17:34:42;;;;;;;82.30;30.80;;;8.60;99.90;;;;;;4843955;29;20069;-90
2021/12/29 17:37:14;;;;;;;66.97;29.03;;;7.50;99.90;;;;;;4844831;29;20133;-90
2021/12/29 17:39:42;;;;;;;64.50;28.73;;;8.00;99.90;;;;;;4844097;29;20045;-90
2021/12/29 17:42:11;;;;;;;68.87;28.83;;;7.40;99.90;;;;;;4843701;29;20038;-90